createdAt,value
2023-03-01T08:25:40.726Z,23.50
2023-03-01T08:28:07.292Z,24.00
2023-03-01T08:30:35.210Z,24.50
2023-03-01T08:33:01.906Z,24.60
2023-03-01T08:35:28.541Z,24.50
2023-03-01T08:37:55.126Z,24.70
2023-03-01T08:40:21.695Z,24.70
2023-03-01T08:42:48.333Z,24.80
2023-03-01T08:45:19.046Z,24.50
2023-03-01T08:47:46.243Z,24.90
2023-03-01T08:50:13.051Z,24.90
2023-03-01T08:52:39.725Z,24.50
2023-03-01T08:55:06.922Z,24.50
2023-03-01T08:57:33.500Z,24.40
2023-03-01T09:00:00.113Z,24.40
2023-03-01T09:02:26.792Z,24.60
2023-03-01T09:04:53.410Z,24.50
2023-03-01T09:07:19.947Z,24.60
2023-03-01T09:09:46.563Z,24.50
2023-03-01T09:12:13.811Z,24.80
2023-03-01T09:14:42.094Z,24.80
2023-03-01T09:17:08.731Z,24.60
2023-03-01T09:19:35.456Z,24.50
2023-03-01T09:22:03.544Z,24.70
2023-03-01T09:24:30.153Z,24.50
2023-03-01T09:26:57.556Z,24.60
2023-03-01T09:29:24.663Z,24.80
2023-03-01T09:31:51.301Z,24.60
2023-03-01T09:34:23.559Z,24.50
2023-03-01T09:36:51.398Z,24.30
2023-03-01T09:39:19.005Z,24.60
2023-03-01T09:41:58.741Z,24.60
2023-03-01T09:44:35.399Z,25.00
2023-03-01T09:47:02.852Z,24.80
2023-03-01T09:49:32.754Z,24.60
2023-03-01T09:52:23.118Z,24.90
2023-03-01T09:54:54.859Z,24.90
2023-03-01T09:57:50.417Z,25.00
2023-03-01T10:00:25.383Z,24.70
2023-03-01T10:03:03.544Z,25.70
2023-03-01T10:06:00.237Z,25.70
2023-03-01T10:08:38.679Z,25.50
2023-03-01T10:11:21.673Z,25.90
2023-03-01T10:13:54.655Z,25.60
2023-03-01T10:16:46.194Z,25.60
2023-03-01T10:19:22.149Z,25.00
2023-03-01T10:21:51.759Z,24.40
2023-03-01T10:24:22.426Z,24.30
2023-03-01T10:27:03.125Z,24.30
2023-03-01T10:29:41.648Z,24.50
2023-03-01T10:32:10.725Z,24.40
2023-03-01T10:34:37.935Z,24.50
2023-03-01T10:37:15.834Z,25.00
2023-03-01T10:40:10.187Z,25.00
2023-03-01T10:42:40.393Z,25.10
2023-03-01T10:45:31.320Z,25.40
2023-03-01T10:48:18.825Z,25.40
2023-03-01T10:50:47.829Z,26.10
2023-03-01T10:53:42.345Z,26.10
2023-03-01T10:56:11.411Z,26.20
2023-03-01T10:58:40.058Z,26.20
2023-03-01T11:01:17.089Z,27.70
2023-03-01T11:03:43.716Z,27.40
2023-03-01T11:06:13.214Z,26.70
2023-03-01T11:08:42.715Z,26.00
2023-03-01T11:11:32.976Z,25.80
2023-03-01T11:14:25.976Z,25.30
2023-03-01T11:17:05.734Z,25.50
2023-03-01T11:19:33.160Z,24.20
2023-03-01T11:22:06.431Z,19.10
2023-03-01T11:24:39.260Z,19.70
2023-03-01T11:27:17.102Z,19.80
2023-03-01T11:29:49.041Z,20.00
2023-03-01T11:32:16.602Z,20.90
2023-03-01T11:35:03.100Z,21.80
2023-03-01T11:37:56.967Z,22.50
2023-03-01T11:40:33.701Z,22.60
2023-03-01T11:43:20.102Z,21.90
2023-03-01T11:46:18.675Z,22.00
2023-03-01T11:49:22.992Z,22.60
2023-03-01T11:52:11.026Z,22.40
2023-03-01T11:55:19.981Z,22.30
2023-03-01T11:58:09.818Z,22.60
2023-03-01T12:00:42.143Z,22.80
2023-03-01T12:03:41.486Z,22.50
2023-03-01T12:06:23.813Z,22.90
2023-03-01T12:09:23.858Z,22.90
2023-03-01T12:12:20.831Z,22.30
2023-03-01T12:15:07.078Z,22.40
2023-03-01T12:18:12.512Z,22.70
2023-03-01T12:20:54.442Z,22.60
2023-03-01T12:23:39.798Z,23.20
2023-03-01T12:26:36.319Z,23.10
2023-03-01T12:29:21.863Z,23.30
2023-03-01T12:32:11.057Z,23.80
2023-03-01T12:35:06.822Z,24.30
2023-03-01T12:37:53.807Z,24.50
2023-03-01T12:40:29.302Z,24.50
2023-03-01T12:43:13.124Z,24.40
2023-03-01T12:45:58.447Z,24.10
2023-03-01T12:48:36.971Z,24.30
2023-03-01T12:51:08.495Z,24.00
2023-03-01T12:53:51.340Z,23.50
2023-03-01T12:56:28.011Z,23.20
2023-03-01T12:59:22.222Z,24.20
2023-03-01T13:02:01.001Z,24.10
2023-03-01T13:04:49.534Z,24.20
2023-03-01T13:07:42.568Z,24.70
2023-03-01T13:10:32.528Z,24.50
2023-03-01T13:12:59.183Z,24.80
2023-03-01T13:15:37.047Z,25.00
2023-03-01T13:18:17.310Z,24.90
2023-03-01T13:20:43.826Z,24.80
2023-03-01T13:23:22.501Z,24.60
2023-03-01T13:26:04.218Z,24.40
2023-03-01T13:29:01.961Z,24.50
2023-03-01T13:31:28.535Z,25.00
2023-03-01T13:33:56.325Z,24.50
2023-03-01T13:36:28.797Z,24.80
2023-03-01T13:38:58.429Z,24.60
2023-03-01T13:41:40.200Z,24.80
2023-03-01T13:44:27.084Z,24.50
2023-03-01T13:46:58.150Z,24.70
2023-03-01T13:49:33.390Z,24.80
2023-03-01T13:52:26.395Z,24.60
2023-03-01T13:54:54.546Z,24.90
2023-03-01T13:57:25.787Z,25.00
2023-03-01T13:59:52.355Z,25.00
2023-03-01T14:02:18.930Z,25.10
2023-03-01T14:04:57.831Z,25.10
2023-03-01T14:07:25.594Z,25.10
2023-03-01T14:10:05.042Z,25.30
2023-03-01T14:13:11.329Z,25.40
2023-03-01T14:16:02.572Z,25.20
2023-03-01T14:18:39.875Z,25.10
2023-03-01T14:21:09.913Z,25.00
2023-03-01T14:23:42.987Z,25.30
2023-03-01T14:26:10.047Z,25.30
2023-03-01T14:28:39.878Z,25.10
2023-03-01T14:31:52.078Z,25.30
2023-03-01T14:34:22.426Z,24.90
2023-03-01T14:36:49.095Z,24.80
2023-03-01T14:39:36.064Z,25.40
2023-03-01T14:42:15.172Z,25.70
2023-03-01T14:44:48.540Z,25.50
2023-03-01T14:47:34.427Z,25.90
2023-03-01T14:50:16.737Z,26.50
2023-03-01T14:52:47.538Z,25.70
2023-03-01T14:55:19.238Z,26.10
2023-03-01T14:57:49.394Z,26.20
2023-03-01T15:00:20.829Z,26.10
2023-03-01T15:02:49.624Z,25.70
2023-03-01T15:05:19.135Z,25.60
2023-03-01T15:07:50.851Z,25.20
2023-03-01T15:10:38.032Z,24.90
2023-03-01T15:13:20.981Z,24.80
2023-03-01T15:15:48.863Z,24.80
2023-03-01T15:18:22.218Z,24.90
2023-03-01T15:20:50.274Z,24.70
2023-03-01T15:23:25.250Z,24.50
2023-03-01T15:25:59.754Z,25.20
2023-03-01T15:28:34.596Z,25.80
2023-03-01T15:31:24.159Z,26.20
2023-03-01T15:33:52.191Z,25.30
2023-03-01T15:36:40.326Z,25.40
2023-03-01T15:39:26.682Z,25.60
2023-03-01T15:41:53.239Z,25.30
2023-03-01T15:44:41.661Z,25.30
2023-03-01T15:47:30.884Z,25.40
2023-03-01T15:50:00.574Z,25.30
2023-03-01T15:52:42.031Z,25.30
2023-03-01T15:55:23.298Z,25.10
2023-03-01T15:57:51.192Z,25.10
2023-03-01T16:00:18.710Z,25.10
2023-03-01T16:02:45.716Z,25.20
2023-03-01T16:05:22.942Z,25.10
2023-03-01T16:07:50.055Z,25.00
2023-03-01T16:10:17.185Z,25.00
2023-03-01T16:12:43.770Z,25.00
2023-03-01T16:15:17.652Z,24.80
2023-03-01T16:17:44.242Z,25.00
2023-03-01T16:20:17.188Z,25.10
2023-03-01T16:22:47.084Z,25.20
2023-03-01T16:25:17.572Z,25.50
2023-03-01T16:27:45.641Z,25.20
2023-03-01T16:30:14.334Z,25.70
2023-03-01T16:32:42.425Z,25.80
2023-03-01T16:35:10.867Z,25.70
2023-03-01T16:37:38.145Z,25.90
2023-03-01T16:40:06.386Z,25.80
2023-03-01T16:42:37.701Z,25.70
2023-03-01T16:45:09.086Z,25.40
2023-03-01T16:47:40.500Z,25.70
2023-03-01T16:50:07.348Z,25.30
2023-03-01T16:52:34.910Z,25.70
2023-03-01T16:55:04.782Z,25.50
2023-03-01T16:57:31.725Z,25.40
2023-03-01T16:59:58.364Z,25.40
2023-03-01T17:02:24.965Z,25.60
2023-03-01T17:04:55.956Z,25.40
2023-03-01T17:07:23.138Z,25.30
2023-03-01T17:09:49.760Z,25.40
2023-03-01T17:12:16.848Z,25.40
2023-03-01T17:14:44.020Z,25.30
2023-03-01T17:17:11.720Z,25.90
2023-03-01T17:19:41.585Z,25.50
2023-03-01T17:22:08.740Z,25.40
2023-03-01T17:24:39.674Z,25.20
2023-03-01T17:27:07.425Z,25.50
2023-03-01T17:29:34.266Z,26.00
2023-03-01T17:32:01.626Z,25.80
2023-03-01T17:34:28.298Z,26.20
2023-03-01T17:36:54.904Z,26.20
2023-03-01T17:39:25.777Z,26.10
2023-03-01T17:41:53.080Z,25.60
2023-03-01T17:44:19.681Z,25.80
2023-03-01T17:46:46.572Z,25.70
2023-03-01T17:49:13.347Z,26.70
2023-03-01T17:51:40.011Z,27.00
2023-03-01T17:54:06.593Z,27.10
2023-03-01T17:56:33.901Z,26.30
2023-03-01T17:59:01.647Z,26.20
2023-03-01T18:01:28.285Z,26.00
2023-03-01T18:03:55.290Z,26.00
2023-03-01T18:06:24.186Z,26.00
2023-03-01T18:08:51.326Z,25.90
2023-03-01T18:11:18.897Z,25.70
2023-03-01T18:13:46.148Z,25.70
2023-03-01T18:16:15.563Z,25.60
2023-03-01T18:18:42.834Z,25.60
2023-03-01T18:21:09.432Z,26.10
2023-03-01T18:23:37.047Z,25.70
2023-03-01T18:26:06.961Z,25.60
2023-03-01T18:28:34.109Z,25.80
2023-03-01T18:31:03.951Z,25.80
2023-03-01T18:33:31.556Z,26.00
2023-03-01T18:35:58.234Z,25.70
2023-03-01T18:38:25.546Z,26.10
2023-03-01T18:40:53.093Z,26.30
2023-03-01T18:43:19.748Z,26.50
2023-03-01T18:45:46.483Z,25.90
2023-03-01T18:48:14.278Z,25.80
2023-03-01T18:50:41.570Z,26.20
2023-03-01T18:53:08.649Z,25.80
2023-03-01T18:55:39.266Z,25.80
2023-03-01T18:58:06.334Z,25.60
2023-03-01T19:00:33.718Z,25.70
2023-03-01T19:03:03.935Z,26.70
2023-03-01T19:05:30.844Z,26.30
2023-03-01T19:07:57.743Z,26.70
2023-03-01T19:10:24.919Z,26.70
2023-03-01T19:12:51.509Z,27.10
2023-03-01T19:15:18.293Z,26.90
2023-03-01T19:17:45.289Z,27.00
2023-03-01T19:20:12.802Z,26.80
2023-03-01T19:22:39.601Z,26.40
2023-03-01T19:25:06.842Z,26.90
2023-03-01T19:27:33.415Z,26.70
2023-03-01T19:29:59.961Z,26.40
2023-03-01T19:32:26.551Z,26.60
2023-03-01T19:34:53.218Z,26.20
2023-03-01T19:37:19.756Z,26.60
2023-03-01T19:39:47.999Z,26.30
2023-03-01T19:42:14.561Z,25.90
2023-03-01T19:44:41.470Z,26.30
2023-03-01T19:47:08.104Z,26.40
2023-03-01T19:49:37.350Z,26.30
2023-03-01T19:52:04.445Z,26.30
2023-03-01T19:54:31.085Z,26.10
2023-03-01T19:56:57.633Z,26.10
2023-03-01T19:59:25.416Z,26.20
2023-03-01T20:01:52.324Z,25.90
2023-03-01T20:04:19.186Z,26.10
2023-03-01T20:06:46.793Z,25.80
2023-03-01T20:09:21.347Z,25.90
2023-03-01T20:11:48.446Z,26.00
2023-03-01T20:14:15.038Z,26.20
2023-03-01T20:16:41.946Z,25.90
2023-03-01T20:19:08.648Z,25.80
2023-03-01T20:21:35.323Z,25.80
2023-03-01T20:24:02.305Z,25.90
2023-03-01T20:26:29.247Z,25.80
2023-03-01T20:28:57.199Z,25.80
2023-03-01T20:31:29.887Z,25.90
2023-03-01T20:33:57.761Z,25.90
2023-03-01T20:36:24.844Z,25.90
2023-03-01T20:38:54.880Z,25.90
2023-03-01T20:41:21.824Z,25.50
2023-03-01T20:43:54.239Z,25.70
2023-03-01T20:46:21.369Z,25.80
2023-03-01T20:48:47.987Z,25.60
2023-03-01T20:51:15.297Z,25.70
2023-03-01T20:53:42.198Z,25.80
2023-03-01T20:56:16.232Z,25.60
2023-03-01T20:58:44.286Z,25.80
2023-03-01T21:01:15.694Z,25.60
2023-03-01T21:03:42.385Z,25.70
2023-03-01T21:06:09.306Z,25.80
2023-03-01T21:08:36.113Z,25.70
2023-03-01T21:11:04.212Z,25.40
2023-03-01T21:13:31.994Z,24.90
2023-03-01T21:16:04.388Z,25.50
2023-03-01T21:18:32.405Z,25.40
2023-03-01T21:21:00.125Z,25.90
2023-03-01T21:23:28.404Z,26.10
2023-03-01T21:26:01.996Z,26.30
2023-03-01T21:28:32.257Z,25.60
2023-03-01T21:31:03.360Z,25.90
2023-03-01T21:33:30.045Z,25.70
2023-03-01T21:36:01.061Z,25.80
2023-03-01T21:38:29.889Z,25.90
2023-03-01T21:40:56.509Z,25.60
2023-03-01T21:43:23.598Z,25.50
2023-03-01T21:45:50.386Z,25.50
2023-03-01T21:48:17.200Z,25.50
2023-03-01T21:50:43.729Z,25.50
2023-03-01T21:53:10.271Z,25.30
2023-03-01T21:55:36.787Z,25.50
2023-03-01T21:58:03.372Z,25.20
2023-03-01T22:00:31.363Z,25.10
2023-03-01T22:02:58.059Z,25.30
2023-03-01T22:05:24.737Z,25.10
2023-03-01T22:07:51.281Z,25.40
2023-03-01T22:10:29.502Z,25.10
2023-03-01T22:12:56.914Z,25.10
2023-03-01T22:15:23.993Z,25.80
2023-03-01T22:17:50.763Z,25.40
2023-03-01T22:20:20.809Z,25.20
2023-03-01T22:22:47.326Z,24.90
2023-03-01T22:25:13.898Z,25.10
2023-03-01T22:27:40.424Z,25.40
2023-03-01T22:30:08.657Z,25.20
2023-03-01T22:32:35.397Z,25.40
2023-03-01T22:35:01.926Z,25.90
2023-03-01T22:37:28.510Z,26.00
2023-03-01T22:39:55.182Z,26.00
2023-03-01T22:42:21.695Z,25.80
2023-03-01T22:44:48.217Z,24.30
2023-03-01T22:47:14.829Z,24.50
2023-03-01T22:49:41.372Z,24.50
2023-03-01T22:52:07.895Z,25.20
2023-03-01T22:54:34.419Z,25.60
2023-03-01T22:57:01.201Z,25.60
2023-03-01T22:59:27.770Z,25.70
2023-03-01T23:01:54.470Z,25.30
2023-03-01T23:04:22.003Z,25.30
2023-03-01T23:06:53.627Z,25.40
2023-03-01T23:09:21.673Z,25.30
2023-03-01T23:11:48.347Z,25.20
2023-03-01T23:14:16.105Z,25.30
2023-03-01T23:16:42.747Z,25.30
2023-03-01T23:19:09.354Z,25.10
2023-03-01T23:21:35.941Z,25.10
2023-03-01T23:24:02.500Z,25.40
2023-03-01T23:26:30.327Z,25.00
2023-03-01T23:28:57.298Z,25.50
2023-03-01T23:31:30.101Z,25.20
2023-03-01T23:33:56.662Z,25.10
2023-03-01T23:36:24.684Z,25.30
2023-03-01T23:38:52.389Z,25.20
2023-03-01T23:41:20.448Z,25.10
2023-03-01T23:43:47.943Z,24.80
2023-03-01T23:46:15.165Z,25.10
2023-03-01T23:48:42.272Z,25.10
2023-03-01T23:51:09.162Z,25.20
2023-03-01T23:53:41.359Z,25.20
2023-03-01T23:56:08.746Z,25.10
2023-03-01T23:58:35.317Z,25.10
